Latest Coastal Weather Observations for Cooktown

IDQ60701

Issued at 3:55 am EST Thursday 24 April 2014 (issued every 10 minutes, with the page automatically refreshed every 10 minutes)

About coastal observations | Map of coastal stations | Coastal observations for QLD | Marine services | Other Formats
Station Details ID: 031209 Name: COOKTOWN AIRPORT Lat: -15.45 Lon: 145.19 Height: 4.8 m
Data from the previous 72 hours. | See also: Recent months at Cooktown
Date/Time
EST
Temp

°C
Wind Pressure Rain
since 9am
mm
Weather Cloud Vis
km
Sea
Height
m
Swell
Dir
 
Speed
knots
Gust
knots
hPa Trend Height
m
Period
s
Dir
24/03:30am 24.4 ESE 5 8 1009.2 - 3.2 - Partly cloudy 10 - - - -
24/03:00am 24.3 ESE 6 9 1009.5 - 3.2 - Cloudy 10 - - - -
24/02:52am 24.2 SE 5 8 1009.7 - 3.2 - Partly cloudy 10 - - - -
24/02:36am 24.3 SE 7 10 1009.9 - 3.2 - Partly cloudy 10 - - - -
24/02:30am 24.4 SE 8 13 1010.0 - 3.2 - Partly cloudy 9 - - - -
24/02:00am 24.4 SE 8 14 1010.4 - 3.0 - Partly cloudy 2 - - - -
24/01:30am 24.5 SSE 5 8 1010.6 - 2.0 - Partly cloudy 3 - - - -
24/01:17am 24.6 SSE 5 7 1010.8 - 1.2 - Partly cloudy 5 - - - -
24/01:00am 24.7 ESE 8 12 1011.0 - 1.0 - Cloudy 8 - - - -
24/12:38am 25.0 ESE 13 22 1011.3 - 1.0 - Partly cloudy 9 - - - -
24/12:30am 25.3 SE 6 11 1011.4 - 0.8 - Partly cloudy 10 - - - -
24/12:06am 25.4 SE 8 15 1011.7 - 0.8 - Partly cloudy 10 - - - -
24/12:00am 25.3 SE 7 15 1011.6 - 0.8 - Cloudy 10 - - - -
 
Date/Time
EST
Temp

°C
Wind Pressure Rain
since 9am
mm
Weather Cloud Vis
km
Sea
Height
m
Swell
Dir
 
Speed
knots
Gust
knots
hPa Trend Height
m
Period
s
Dir
23/11:51pm 25.3 SE 7 14 1011.7 - 0.8 - Partly cloudy 10 - - - -
23/11:49pm 25.3 SE 7 14 1011.7 - 0.8 - Partly cloudy 10 - - - -
23/11:40pm 25.3 SE 8 13 1011.8 - 0.8 - Partly cloudy 10 - - - -
23/11:30pm 25.2 SE 8 13 1011.9 - 0.8 - Partly cloudy 5 - - - -
23/11:23pm 25.2 SE 6 11 1012.0 - 0.6 - Partly cloudy 5 - - - -
23/11:16pm 25.3 SE 6 8 1012.0 - 0.2 - Partly cloudy 10 - - - -
23/11:00pm 25.4 SE 7 11 1012.2 - 0.2 - Partly cloudy 10 - - - -
23/10:30pm 25.7 ESE 9 13 1012.4 - 0.2 - Partly cloudy 10 - - - -
23/10:00pm 26.3 SE 9 15 1012.2 - 0.2 - Partly cloudy 10 - - - -
23/09:30pm 26.4 SE 9 14 1012.3 - 0.2 - Partly cloudy 10 - - - -
23/09:00pm 26.4 SE 7 13 1012.2 - 0.2 - Partly cloudy 10 - - - -
23/08:30pm 26.2 SE 8 12 1011.8 - 0.2 - Partly cloudy 10 - - - -
23/08:00pm 26.2 SE 7 10 1011.4 - 0.2 - Partly cloudy 10 - - - -
23/07:30pm 26.3 SE 7 11 1011.1 - 0.2 - Partly cloudy 10 - - - -
23/07:00pm 26.4 SE 7 12 1010.9 - 0.2 - Partly cloudy 10 - - - -
23/06:30pm 26.2 SE 7 12 1010.6 - 0.2 - Partly cloudy 10 - - - -
23/06:00pm 26.4 SE 8 14 1010.4 - 0.2 - Partly cloudy 10 - - - -
23/05:30pm 26.9 ESE 8 11 1010.3 - 0.2 - Cloudy 10 - - - -
23/05:00pm 27.2 ESE 8 14 1010.3 - 0.2 - Partly cloudy 10 - - - -
23/04:30pm 27.5 ESE 7 11 1010.2 - 0.2 - Partly cloudy 10 - - - -
23/04:00pm 27.3 ESE 10 14 1010.0 - 0.2 - Partly cloudy 10 - - - -
23/03:30pm 27.4 ESE 7 11 1010.2 - 0.2 - Partly cloudy 10 - - - -
23/03:00pm 26.8 ESE 9 14 1010.1 F 0.2 Fine Mostly cloudy 35 - - - -
23/02:44pm 26.9 ESE 8 11 1010.1 - 0.2 - Partly cloudy 10 - - - -
23/02:30pm 26.9 ESE 10 17 1010.1 - 0.2 - Partly cloudy 5 - - - -
23/02:00pm 27.8 ESE 8 16 1010.4 - 0.2 - Partly cloudy 10 - - - -
23/01:48pm 27.8 ESE 11 15 1010.5 - 0.2 - Partly cloudy 10 - - - -
23/01:30pm 29.1 ESE 9 13 1010.6 - 0.2 - Partly cloudy 10 - - - -
23/01:22pm 28.9 ESE 9 16 1010.8 - 0.2 - Partly cloudy 10 - - - -
23/01:00pm 28.4 ESE 10 15 1010.9 - 0.2 - Partly cloudy 10 - - - -
23/12:54pm 28.6 ESE 11 16 1011.0 - 0.2 - Partly cloudy 10 - - - -
23/12:30pm 28.1 ESE 10 17 1011.3 - 0.2 - Partly cloudy 10 - - - -
23/12:00pm 28.4 SE 9 15 1011.7 - 0.2 - Cloudy 10 - - - -
23/11:30am 28.3 ESE 9 13 1012.1 - 0.2 - Cloudy 10 - - - -
23/11:00am 28.3 ESE 11 17 1012.5 - 0.0 - Partly cloudy 10 - - - -
23/10:30am 28.1 SE 10 16 1012.7 - 0.0 - Partly cloudy 10 - - - -
23/10:27am 28.1 ESE 12 18 1012.7 - 0.0 - Partly cloudy 10 - - - -
23/10:00am 27.8 ESE 14 19 1012.9 - 0.0 - Partly cloudy 10 - - - -
23/09:30am 27.9 E 11 16 1012.8 - 0.0 - Partly cloudy 10 - - - -
23/09:00am 27.1 ESE 12 15 1012.6 R 3.2 Fine Mostly cloudy 20 - - - -
23/08:30am 26.8 ESE 11 18 1012.5 - 3.2 - Partly cloudy 10 - - - -
23/08:00am 27.0 ESE 12 18 1012.3 - 3.2 - Partly cloudy 10 - - - -
23/07:49am 27.0 ESE 11 16 1012.3 - 3.2 - Partly cloudy 10 - - - -
23/07:30am 26.2 ESE 9 17 1012.3 - 3.2 - Partly cloudy 10 - - - -
23/07:00am 25.6 SE 10 16 1011.8 - 3.2 - Partly cloudy 7 - - - -
23/06:52am 25.7 ESE 9 13 1011.7 - 3.0 - Partly cloudy 10 - - - -
23/06:33am 25.4 ESE 8 11 1011.3 - 2.6 - Partly cloudy 5 - - - -
23/06:30am 25.4 ESE 9 16 1011.3 - 2.2 - Partly cloudy 10 - - - -
23/06:00am 25.8 ESE 12 17 1010.7 - 2.0 - Cloudy 10 - - - -
23/05:30am 25.8 ESE 9 15 1010.6 - 2.0 - Partly cloudy 10 - - - -
23/05:00am 25.7 SE 9 15 1010.4 - 2.0 - Partly cloudy 10 - - - -
23/04:30am 25.8 ESE 10 17 1010.6 - 2.0 - Partly cloudy 10 - - - -
23/04:00am 25.6 ESE 10 17 1010.4 - 2.0 - Cloudy 10 - - - -
23/03:30am 25.6 ESE 8 13 1010.6 - 2.0 - Partly cloudy 10 - - - -
23/03:00am 25.3 SE 7 13 1011.0 - 2.0 - Cloudy 10 - - - -
23/02:30am 25.3 ESE 7 11 1011.4 - 1.6 - Partly cloudy 10 - - - -
23/02:00am 25.3 SE 8 13 1011.4 - 1.6 - Partly cloudy 10 - - - -
23/01:30am 25.4 ESE 8 15 1011.9 - 1.6 - Partly cloudy 10 - - - -
23/01:00am 25.1 ESE 9 14 1012.1 - 1.6 - Partly cloudy 10 - - - -
23/12:54am 25.0 ESE 9 14 1012.2 - 1.6 - Partly cloudy 10 - - - -
23/12:50am 24.9 ESE 9 13 1012.3 - 1.6 - Partly cloudy 10 - - - -
23/12:30am 25.0 ESE 8 12 1012.6 - 1.6 - Partly cloudy 9 - - - -
23/12:00am 25.0 SE 9 14 1013.0 - 1.4 - Cloudy 10 - - - -
 
Date/Time
EST
Temp

°C
Wind Pressure Rain
since 9am
mm
Weather Cloud Vis
km
Sea
Height
m
Swell
Dir
 
Speed
knots
Gust
knots
hPa Trend Height
m
Period
s
Dir
22/11:30pm 25.1 ESE 7 11 1013.2 - 1.4 - Partly cloudy 10 - - - -
22/11:29pm 25.2 ESE 7 11 1013.3 - 1.4 - Partly cloudy 10 - - - -
22/11:25pm 25.1 SE 7 11 1013.3 - 1.4 - Partly cloudy 10 - - - -
22/11:00pm 25.1 SE 8 14 1013.4 - 1.4 - Partly cloudy 10 - - - -
22/10:50pm 25.0 ESE 8 14 1013.4 - 1.4 - Partly cloudy 10 - - - -
22/10:37pm 24.9 ESE 9 14 1013.4 - 1.4 - Partly cloudy 5 - - - -
22/10:34pm 25.0 ESE 9 14 1013.4 - 1.4 - Partly cloudy 5 - - - -
22/10:30pm 25.3 SE 9 14 1013.4 - 1.4 - Partly cloudy 10 - - - -
22/10:00pm 25.4 SE 8 13 1013.6 - 1.4 - Partly cloudy 10 - - - -
22/09:30pm 25.5 SE 7 12 1013.7 - 1.4 - Partly cloudy 10 - - - -
22/09:00pm 25.7 ESE 7 15 1013.9 - 1.4 - Cloudy 10 - - - -
22/08:30pm 25.9 SE 8 12 1013.9 - 1.4 - Partly cloudy 10 - - - -
22/08:00pm 26.1 SE 7 11 1013.7 - 1.4 - Partly cloudy 10 - - - -
22/07:30pm 26.1 SE 7 11 1013.4 - 1.4 - Partly cloudy 10 - - - -
22/07:00pm 26.0 SE 7 11 1013.1 - 1.4 - Partly cloudy 10 - - - -
22/06:30pm 26.0 SE 6 10 1012.8 - 1.4 - Partly cloudy 10 - - - -
22/06:00pm 26.1 SE 7 11 1012.5 - 1.4 - Cloudy 10 - - - -
22/05:30pm 26.3 SE 7 12 1012.4 - 1.4 - Partly cloudy 10 - - - -
22/05:00pm 26.5 SE 9 14 1012.2 - 1.4 - - 10 - - - -
22/04:30pm 26.8 SE 11 17 1011.9 - 1.4 - Partly cloudy 10 - - - -
22/04:00pm 27.0 SE 9 15 1011.9 - 1.4 - Partly cloudy 10 - - - -
22/03:30pm 27.3 ESE 9 19 1011.9 - 1.4 - Partly cloudy 10 - - - -
22/03:00pm 27.5 SE 12 19 1012.0 F 1.4 Fine Mostly cloudy 25 - - - -
22/02:30pm 27.2 SE 12 19 1012.2 - 1.4 - Partly cloudy 10 - - - -
22/02:00pm 27.5 SE 12 19 1012.5 - 1.4 - Partly cloudy 10 - - - -
22/01:30pm 27.6 SE 12 19 1012.9 - 1.4 - Partly cloudy 10 - - - -
22/01:00pm 27.6 SE 11 23 1013.4 - 1.4 - Partly cloudy 10 - - - -
22/12:30pm 27.5 ESE 11 16 1013.9 - 1.4 - Partly cloudy 10 - - - -
22/12:00pm 27.1 ESE 13 17 1014.3 - 1.4 - Mostly cloudy 10 - - - -
22/11:30am 27.3 ESE 12 19 1014.6 - 1.4 - Partly cloudy 10 - - - -
22/11:00am 27.4 ESE 12 19 1015.0 - 1.4 - Partly cloudy 10 - - - -
22/10:30am 26.9 ESE 13 20 1015.2 - 1.4 - Partly cloudy 10 - - - -
22/10:00am 26.3 ESE 12 18 1015.3 - 1.4 - Partly cloudy 10 - - - -
22/09:30am 25.5 ESE 11 16 1015.3 - 1.4 - Partly cloudy 10 - - - -
22/09:26am 25.5 ESE 11 17 1015.2 - 1.4 - Partly cloudy 10 - - - -
22/09:09am 25.1 E 11 15 1015.1 - 0.8 - Partly cloudy 3 - - - -
22/09:03am 25.3 ESE 11 14 1015.1 - 0.6 - Partly cloudy 5 - - - -
22/09:00am 26.0 ESE 11 15 1014.9 R 33.0 Rain Cloudy 7 - - - -
22/08:30am 25.6 ESE 10 18 1014.6 - 33.0 - Partly cloudy 10 - - - -
22/08:00am 25.7 ESE 10 14 1014.3 - 33.0 - Partly cloudy 10 - - - -
22/07:30am 25.3 ESE 11 19 1013.9 - 33.0 - Partly cloudy 10 - - - -
22/07:00am 25.0 ESE 12 16 1013.7 - 33.0 - Partly cloudy 10 - - - -
22/06:59am 25.0 ESE 12 16 1013.7 - 33.0 - Partly cloudy 10 - - - -
22/06:40am 25.1 ESE 12 16 1013.5 - 33.0 - Partly cloudy 10 - - - -
22/06:30am 24.8 ESE 10 15 1013.3 - 33.0 - Partly cloudy 10 - - - -
22/06:00am 25.3 E 9 23 1013.0 - 32.6 - Cloudy 10 - - - -
22/05:30am 25.5 ESE 9 15 1013.0 - 32.6 - Partly cloudy 10 - - - -
22/05:00am 24.9 ESE 9 15 1012.9 - 32.6 - Partly cloudy 10 - - - -
22/04:30am 24.3 ESE 8 15 1012.7 - 32.6 - Partly cloudy 10 - - - -
22/04:17am 23.7 ESE 10 17 1012.9 - 32.6 - Partly cloudy 7 - - - -
22/04:00am 23.4 ESE 13 18 1012.9 - 32.4 - Partly cloudy 4 - - - -
22/03:49am 23.3 ESE 17 27 1013.0 - 32.2 - Partly cloudy 2 - - - -
22/03:40am 23.7 E 22 28 1013.1 - 30.0 - Partly cloudy 4 - - - -
22/03:38am 24.3 E 21 28 1013.0 - 29.2 - Partly cloudy 10 - - - -
22/03:30am 25.6 ESE 9 14 1012.7 - 28.6 - Partly cloudy 10 - - - -
22/03:00am 25.7 ESE 9 13 1012.9 - 28.6 - Cloudy 10 - - - -
22/02:30am 25.5 ESE 10 16 1013.1 - 28.6 - Partly cloudy 10 - - - -
22/02:00am 24.8 ESE 11 17 1013.3 - 28.6 - Partly cloudy 10 - - - -
22/01:48am 24.9 ESE 11 19 1013.2 - 28.6 - Partly cloudy 10 - - - -
22/01:42am 24.8 ESE 10 15 1013.2 - 28.6 - Partly cloudy 10 - - - -
22/01:30am 24.6 ESE 9 13 1013.3 - 28.6 - Partly cloudy 5 - - - -
22/01:22am 24.7 ESE 10 15 1013.4 - 28.4 - Partly cloudy 5 - - - -
22/01:10am 24.9 SE 9 13 1013.4 - 28.0 - Partly cloudy 10 - - - -
22/01:00am 24.6 SE 9 14 1013.7 - 28.0 - Partly cloudy 5 - - - -
22/12:52am 24.6 SE 9 14 1013.8 - 27.8 - Partly cloudy 5 - - - -
22/12:30am 24.9 SE 8 11 1014.0 - 27.8 - Partly cloudy 10 - - - -
22/12:00am 24.7 SE 7 10 1014.1 - 27.6 - Cloudy 10 - - - -
 
Date/Time
EST
Temp

°C
Wind Pressure Rain
since 9am
mm
Weather Cloud Vis
km
Sea
Height
m
Swell
Dir
 
Speed
knots
Gust
knots
hPa Trend Height
m
Period
s
Dir
21/11:33pm 24.4 ESE 7 12 1014.3 - 27.6 - Partly cloudy 10 - - - -
21/11:30pm 24.4 ESE 7 12 1014.3 - 27.6 - Partly cloudy 10 - - - -
21/11:00pm 24.1 SE 5 8 1014.5 - 27.6 - Partly cloudy 10 - - - -
21/10:45pm 23.9 SE 6 9 1014.7 - 27.6 - Partly cloudy 10 - - - -
21/10:30pm 23.7 SE 7 11 1014.8 - 27.6 - Partly cloudy 10 - - - -
21/10:09pm 23.6 ESE 11 18 1015.0 - 27.4 - Partly cloudy 6 - - - -
21/10:00pm 23.7 ESE 14 20 1014.9 - 27.0 - Partly cloudy 6 - - - -
21/09:55pm 23.9 ESE 14 21 1014.9 - 27.0 - Partly cloudy 5 - - - -
21/09:50pm 23.9 ESE 13 21 1014.8 - 26.8 - Partly cloudy 5 - - - -
21/09:48pm 23.8 ESE 13 19 1014.9 - 26.8 - Partly cloudy 5 - - - -
21/09:42pm 23.8 ESE 13 19 1014.9 - 26.2 - Partly cloudy 8 - - - -
21/09:30pm 23.3 E 16 22 1014.8 - 26.2 - Partly cloudy 2 - - - -
21/09:14pm 23.7 E 15 27 1014.7 - 18.8 - Partly cloudy 2 - - - -
21/09:00pm 24.2 E 13 18 1014.6 - 14.6 - Cloudy 3 - - - -
21/08:36pm 24.4 E 15 21 1014.6 - 6.0 - Partly cloudy 5 - - - -
21/08:30pm 24.5 E 15 21 1014.6 - 4.8 - Partly cloudy 9 - - - -
21/08:00pm 25.3 ESE 10 17 1014.1 - 4.6 - Partly cloudy 10 - - - -
21/07:30pm 24.8 SE 7 10 1013.7 - 4.6 - Partly cloudy 10 - - - -
21/07:00pm 24.3 SE 6 9 1013.5 - 4.6 - Partly cloudy 10 - - - -
21/06:38pm 24.3 SE 8 12 1013.3 - 4.6 - Partly cloudy 10 - - - -
21/06:30pm 24.3 SE 9 17 1013.2 - 4.2 - Partly cloudy 10 - - - -
21/06:00pm 24.7 ESE 6 10 1012.8 - 4.2 - Cloudy 10 - - - -
21/05:58pm 24.7 ESE 6 10 1012.9 - 4.2 - Partly cloudy 10 - - - -
21/05:30pm 24.6 SE 7 12 1012.7 - 4.0 - Partly cloudy 10 - - - -
21/05:11pm 24.6 SE 8 12 1012.8 - 3.8 - Partly cloudy 10 - - - -
21/05:09pm 24.5 SE 8 13 1012.8 - 3.8 - Partly cloudy 10 - - - -
21/05:00pm 24.4 SE 9 13 1012.7 - 3.6 - Partly cloudy 10 - - - -
21/04:30pm 24.2 ESE 8 11 1012.5 - 3.6 - Partly cloudy 10 - - - -
21/04:26pm 24.2 ESE 8 11 1012.4 - 3.6 - Partly cloudy 10 - - - -
21/04:05pm 24.4 ESE 11 18 1012.4 - 3.2 - Partly cloudy 4 - - - -
21/04:00pm 24.5 ESE 13 18 1012.4 - 3.0 - Partly cloudy 4 - - - -
21/03:55pm 24.7 ESE 13 18 1012.4 - 2.8 - Partly cloudy 5 - - - -
21/03:48pm 25.6 ESE 12 17 1012.3 - 2.2 - Partly cloudy 10 - - - -
21/03:35pm 25.6 ESE 10 17 1012.3 - 2.2 - Partly cloudy 10 - - - -
21/03:30pm 25.6 ESE 9 14 1012.3 - 2.2 - Partly cloudy 10 - - - -
21/03:21pm 25.4 SE 7 11 1012.2 - 2.2 - Partly cloudy 10 - - - -
21/03:00pm 25.0 SE 9 17 1012.1 - 2.2 - Cloudy 10 - - - -
21/02:49pm 24.9 ESE 10 16 1012.1 - 2.2 - Partly cloudy 10 - - - -
21/02:30pm 24.4 ESE 13 21 1012.1 - 2.2 - Partly cloudy 4 - - - -
21/02:29pm 24.6 ESE 13 21 1012.2 - 2.0 - Partly cloudy 5 - - - -
21/02:21pm 26.4 ESE 12 19 1011.9 - 1.4 - Partly cloudy 10 - - - -
21/02:05pm 26.0 ESE 11 18 1012.0 - 1.4 - Partly cloudy 10 - - - -
21/02:00pm 26.3 ESE 10 18 1011.9 - 1.4 - Partly cloudy 10 - - - -
21/01:57pm 26.4 ESE 10 15 1012.0 - 1.4 - Partly cloudy 10 - - - -
21/01:37pm 25.2 ESE 11 20 1012.1 - 1.0 - Partly cloudy 5 - - - -
21/01:30pm 26.0 SE 11 20 1012.0 - 0.8 - Partly cloudy 10 - - - -
21/01:13pm 26.5 ESE 11 18 1012.3 - 0.8 - Partly cloudy 10 - - - -
21/01:00pm 26.4 ESE 10 17 1012.4 - 0.8 - Partly cloudy 10 - - - -
21/12:48pm 26.2 ESE 12 18 1012.5 - 0.8 - Partly cloudy 10 - - - -
21/12:36pm 25.1 ESE 13 18 1012.8 - 0.8 - Partly cloudy 4 - - - -
21/12:30pm 24.5 ESE 16 26 1013.0 - 0.6 - Partly cloudy 4 - - - -
21/12:28pm 24.5 ESE 17 26 1013.0 - 0.6 - Partly cloudy 5 - - - -
21/12:22pm 25.1 ESE 15 26 1013.1 - 0.4 - Partly cloudy 10 - - - -
21/12:19pm 26.2 ESE 14 26 1013.0 - 0.4 - Partly cloudy 10 - - - -
21/12:00pm 26.5 ESE 14 20 1013.2 - 0.4 - Cloudy 10 - - - -
21/11:30am 26.0 ESE 11 18 1013.8 - 0.4 - Partly cloudy 10 - - - -
21/11:20am 25.3 ESE 12 18 1014.0 - 0.4 - Partly cloudy 10 - - - -
21/11:00am 24.5 ESE 18 28 1014.5 - 0.4 - Partly cloudy 5 - - - -
21/10:58am 24.5 ESE 18 28 1014.5 - 0.4 - Partly cloudy 5 - - - -
21/10:53am 25.4 E 18 28 1014.4 - 0.4 - Partly cloudy 10 - - - -
21/10:40am 25.9 SE 9 15 1014.4 - 0.2 - Partly cloudy 10 - - - -
21/10:30am 26.0 SE 9 14 1014.6 - 0.2 - Partly cloudy 10 - - - -
21/10:27am 26.1 SE 9 13 1014.6 - 0.2 - Partly cloudy 10 - - - -
21/10:21am 26.3 ESE 11 15 1014.6 - 0.2 - Partly cloudy 10 - - - -
21/10:00am 25.9 SE 10 15 1014.7 - 0.2 - Partly cloudy 10 - - - -
21/09:38am 24.8 ESE 9 14 1014.6 - 0.2 - Partly cloudy 10 - - - -
21/09:30am 24.3 ESE 10 20 1014.7 - 0.2 - Partly cloudy 6 - - - -
21/09:23am 24.3 ESE 13 20 1014.6 - 0.2 - Partly cloudy 5 - - - -
21/09:14am 24.9 ESE 11 19 1014.4 - 0.2 - Partly cloudy 10 - - - -
21/09:00am 24.5 ESE 14 23 1014.3 R 1.4 Showers Cloudy 15 - - - -
21/08:53am 24.8 ESE 14 23 1014.3 - 0.4 - Partly cloudy 5 - - - -
21/08:47am 26.2 ESE 14 20 1014.1 - 0.0 - Partly cloudy 10 - - - -
21/08:37am 26.3 ESE 13 21 1014.0 - 0.0 - Partly cloudy 10 - - - -
21/08:30am 26.3 ESE 12 21 1013.9 - 0.0 - Partly cloudy 10 - - - -
21/08:27am 26.1 SE 11 17 1013.9 - 0.0 - Partly cloudy 10 - - - -
21/08:00am 26.2 ESE 12 20 1013.8 - 0.0 - Cloudy 10 - - - -
21/07:30am 26.2 ESE 13 24 1013.4 - 0.0 - Partly cloudy 10 - - - -
21/07:00am 26.3 ESE 15 25 1013.2 - 0.0 - Partly cloudy 10 - - - -
21/06:59am 26.2 ESE 15 25 1013.1 - 0.0 - Partly cloudy 10 - - - -
21/06:30am 26.1 ESE 12 20 1012.9 - 0.0 - Partly cloudy 10 - - - -
21/06:00am 26.3 ESE 12 21 1012.3 - 0.0 - Cloudy 10 - - - -
21/05:30am 26.2 ESE 12 20 1012.2 - 0.0 - Partly cloudy 10 - - - -
21/05:00am 26.2 ESE 12 23 1012.0 - 0.0 - Partly cloudy 10 - - - -
21/04:30am 25.8 ESE 11 19 1012.0 - 0.0 - Partly cloudy 10 - - - -
21/04:00am 25.6 ESE 12 19 1011.9 - 0.0 - Partly cloudy 10 - - - -

Other Formats:

Comma delimited format used in spreadsheet applications
http://www.bom.gov.au/fwo/IDQ60701/IDQ60701.95283.axf

JavaScript Object Notation format (JSON) in row-major order
http://www.bom.gov.au/fwo/IDQ60701/IDQ60701.95283.json